Terminal Aerodrome Forecast
Issued by NWS Green Bay, WI

Home | Current Version | Previous Version | Graphics & Text | Print | Product List | Glossary Off
Versions: 1 2 3 4 5 6 7 8 9 10 11 12 13 14 15 16 17 18 19 20 21 22 23 24 25 26 27 28 29 30 31 32 33

000
FTUS43 KGRB 311700
TAFGRB
TAF
KGRB 311730Z 3118/0118 32008G13KT P6SM BKN026
     FM312200 02008KT P6SM BKN028
     FM010300 03014G20KT P6SM BKN035
     FM011000 03016G25KT P6SM SCT035 BKN060
      TEMPO 0111/0115 -SN BKN035=

USA.gov is the U.S. government's official web portal to all federal, state and local government web resources and services.